Iona, Minnesota
Current Conditions -  °F | °C
As of 8:13 AM on Sunday 25 Jan 2015 (Local Time) from KDVP Reporting Station
Overcast Overcast  
Wind Chill: 20°   Ceiling: 500
Heat Index: 30°   Visibility: 7mi
Dew Point: 29°   Wind: 12mph
Humidity: 96%   Direction: 360°N
Pressure: 29.92"   Gusts: NA
Location:  43.92°N, 95.78°W
Report Text: KDVP 251413Z AUTO 36010KT 7SM OVC005 M01/M02 A2992 RMK AO2 T10121017
Loading
Personal Weather Stations






























Interactive Weather Map New forecast layout! Learn more

10-Day Weather Forecast

Advertisements
Track Severe Weather on mobile